Time;durP1;ratioP1;P1;durP2;ratioP2;P2;SDS_P1;SDS_P2;PMS_P1;PMS_P2;Temp;Humidity;BMP_temperature;BMP_pressure;BME280_temperature;BME280_humidity;BME280_pressure;Samples;Min_cycle;Max_cycle;Signal;HPM_P1;HPM_P2
2022/03/08 00:01:24;;;;;;;;;53.00;43.00;;;;;7.44;42.38;99236.94;6261901;27;97428;-62
2022/03/08 00:04:27;;;;;;;;;56.80;44.00;;;;;7.52;42.15;99246.72;6249139;27;97250;-61
2022/03/08 00:07:31;;;;;;;;;56.00;43.60;;;;;7.55;42.20;99249.84;6260882;27;96751;-63
2022/03/08 00:10:35;;;;;;;;;55.00;44.00;;;;;7.49;42.17;99221.09;6260397;27;97580;-63
2022/03/08 00:13:39;;;;;;;;;59.00;46.00;;;;;7.58;42.22;99249.44;6252306;27;97388;-64
2022/03/08 00:16:42;;;;;;;;;60.00;44.00;;;;;7.61;42.24;99246.38;6260944;27;97494;-63
2022/03/08 00:19:46;;;;;;;;;56.00;44.00;;;;;7.67;42.21;99247.47;6260423;27;96539;-64
2022/03/08 00:22:49;;;;;;;;;56.60;44.00;;;;;7.72;42.05;99245.03;6243469;27;97035;-64
2022/03/08 00:25:54;;;;;;;;;58.00;44.00;;;;;7.75;42.07;99252.69;6261163;27;97362;-63
2022/03/08 00:28:58;;;;;;;;;54.75;43.00;;;;;7.72;42.25;99248.50;6261730;27;96406;-64
2022/03/08 00:32:02;;;;;;;;;53.00;43.00;;;;;7.75;42.18;99252.69;6261602;27;97511;-63
2022/03/08 00:35:06;;;;;;;;;55.60;44.00;;;;;7.76;42.19;99255.19;6260818;27;97520;-63
2022/03/08 00:38:09;;;;;;;;;56.75;43.50;;;;;7.79;42.23;99249.41;6261575;27;97534;-63
2022/03/08 00:41:14;;;;;;;;;55.00;44.00;;;;;7.87;41.93;99255.66;6242336;27;97292;-63
2022/03/08 00:44:18;;;;;;;;;55.00;42.00;;;;;7.88;42.02;99254.63;6266801;27;97409;-63
2022/03/08 00:47:21;;;;;;;;;53.00;42.80;;;;;7.91;41.88;99255.06;6242968;27;96556;-63
2022/03/08 00:50:27;;;;;;;;;52.50;42.00;;;;;7.91;41.94;99252.41;6261118;27;96581;-63
2022/03/08 00:53:30;;;;;;;;;56.60;43.40;;;;;7.94;41.95;99251.16;6242277;27;96619;-63
2022/03/08 00:56:35;;;;;;;;;53.00;41.00;;;;;7.96;42.01;99254.50;6225794;27;100180;-62
2022/03/08 00:59:38;;;;;;;;;55.80;42.20;;;;;7.97;42.06;99248.06;6242485;27;96926;-62
2022/03/08 01:02:42;;;;;;;;;53.00;42.00;;;;;7.93;42.29;99254.88;6260877;27;96689;-62
2022/03/08 01:05:46;;;;;;;;;49.80;41.60;;;;;7.89;42.52;99249.06;6257070;27;96626;-62
2022/03/08 01:08:49;;;;;;;;;50.60;40.80;;;;;7.89;42.68;99248.22;6242487;27;99024;-62
2022/03/08 01:11:54;;;;;;;;;53.33;42.00;;;;;7.87;42.64;99239.56;6247310;27;97411;-64
2022/03/08 01:14:57;;;;;;;;;55.00;40.75;;;;;7.84;42.71;99251.50;6264625;27;97455;-61
2022/03/08 01:18:01;;;;;;;;;57.80;44.40;;;;;7.63;42.99;99225.53;6246386;27;100280;-63
2022/03/08 01:21:04;;;;;;;;;51.00;41.00;;;;;7.70;43.40;99261.31;6247592;27;96630;-62
2022/03/08 01:24:08;;;;;;;;;52.00;42.00;;;;;7.70;43.23;99252.44;6264472;27;97512;-61
2022/03/08 01:27:12;;;;;;;;;53.67;42.33;;;;;7.76;43.01;99252.50;6264102;27;96828;-63
2022/03/08 01:30:18;;;;;;;;;56.40;44.00;;;;;7.77;43.05;99248.75;6264518;27;97408;-62
2022/03/08 01:33:21;;;;;;;;;52.00;42.00;;;;;7.70;43.25;99250.59;6246573;27;97436;-63
2022/03/08 01:36:26;;;;;;;;;49.50;40.00;;;;;7.66;43.26;99249.31;6230060;27;97784;-63
2022/03/08 01:39:29;;;;;;;;;50.00;39.00;;;;;7.69;43.30;99248.91;6264595;27;96464;-63
2022/03/08 01:42:35;;;;;;;;;51.00;40.40;;;;;7.67;43.10;99234.84;6245340;27;97074;-63
2022/03/08 01:45:38;;;;;;;;;50.00;39.60;;;;;7.77;43.20;99247.97;6264844;27;97407;-63
2022/03/08 01:48:41;;;;;;;;;48.60;40.00;;;;;7.75;43.28;99231.22;6245272;27;99383;-63
2022/03/08 01:51:45;;;;;;;;;51.60;40.00;;;;;7.74;42.99;99234.91;6246888;27;97056;-63
2022/03/08 01:54:49;;;;;;;;;48.80;39.00;;;;;7.70;42.97;99231.78;6264636;27;96824;-62
2022/03/08 01:57:54;;;;;;;;;50.40;39.00;;;;;7.66;42.89;99222.47;6264317;27;97382;-62
2022/03/08 02:00:58;;;;;;;;;50.00;38.40;;;;;7.60;42.69;99233.97;6257472;27;96870;-63
2022/03/08 02:04:01;;;;;;;;;49.00;39.00;;;;;7.52;42.91;99223.41;6264076;27;96734;-63
2022/03/08 02:07:05;;;;;;;;;49.00;40.00;;;;;7.34;43.11;99217.66;6261833;27;97185;-63
2022/03/08 02:10:10;;;;;;;;;48.20;38.60;;;;;7.35;43.21;99216.63;6262091;27;96992;-62
2022/03/08 02:13:14;;;;;;;;;52.00;39.40;;;;;7.25;43.23;99222.31;6261436;27;97744;-63
2022/03/08 02:16:18;;;;;;;;;47.50;39.00;;;;;7.18;43.40;99221.44;6237827;27;97951;-63
2022/03/08 02:19:21;;;;;;;;;52.00;39.00;;;;;7.12;43.74;99218.69;6264800;27;97527;-63
2022/03/08 02:22:26;;;;;;;;;48.60;38.00;;;;;6.51;43.88;99133.34;6264761;27;97398;-62
2022/03/08 02:25:29;;;;;;;;;49.40;39.40;;;;;7.00;43.90;99226.41;6264077;27;97498;-61
2022/03/08 02:28:32;;;;;;;;;51.60;40.40;;;;;6.94;43.98;99209.22;6262911;27;99999;-62
2022/03/08 02:31:36;;;;;;;;;52.00;40.00;;;;;6.86;44.67;99219.25;6244144;27;97679;-62
2022/03/08 02:34:39;;;;;;;;;52.00;41.00;;;;;6.84;44.31;99218.63;6245427;27;98421;-62
2022/03/08 02:37:47;;;;;;;;;50.75;40.00;;;;;6.76;44.81;99227.59;6263402;27;97474;-62
2022/03/08 02:40:51;;;;;;;;;52.00;42.00;;;;;6.74;44.86;99221.59;6257738;27;96605;-62
2022/03/08 02:43:54;;;;;;;;;51.25;40.00;;;;;6.69;44.69;99224.03;6227905;27;97858;-63
2022/03/08 02:47:00;;;;;;;;;54.00;41.40;;;;;6.66;44.74;99232.41;6245411;27;97045;-62
2022/03/08 02:50:05;;;;;;;;;52.60;40.00;;;;;6.49;44.77;99226.47;6244504;27;97517;-62
2022/03/08 02:53:10;;;;;;;;;53.00;42.60;;;;;6.53;45.12;99238.47;6246005;27;97023;-63
2022/03/08 02:56:13;;;;;;;;;51.00;41.00;;;;;6.58;45.22;99237.06;6278531;27;96982;-63
2022/03/08 02:59:21;;;;;;;;;55.20;42.40;;;;;6.51;45.14;99229.75;6263548;27;96757;-63
2022/03/08 03:02:24;;;;;;;;;52.20;41.80;;;;;6.49;44.59;99239.03;6264072;27;96663;-62
2022/03/08 03:05:27;;;;;;;;;53.20;41.80;;;;;6.45;45.21;99235.88;6265318;27;97480;-63
2022/03/08 03:08:32;;;;;;;;;57.40;42.40;;;;;6.37;45.41;99233.28;6244341;27;96653;-63
2022/03/08 03:11:36;;;;;;;;;52.00;42.00;;;;;6.35;45.28;99245.22;6245980;27;96656;-64
2022/03/08 03:14:39;;;;;;;;;55.50;42.00;;;;;6.37;45.36;99246.69;6263329;27;96295;-63
2022/03/08 03:17:43;;;;;;;;;54.50;43.50;;;;;6.40;45.53;99248.19;6263973;27;96427;-63
2022/03/08 03:20:46;;;;;;;;;57.00;44.00;;;;;6.41;45.53;99244.47;6262082;27;97116;-63
2022/03/08 03:23:52;;;;;;;;;56.00;44.00;;;;;6.42;45.39;99255.00;6246238;27;96830;-63
2022/03/08 03:26:55;;;;;;;;;56.00;44.00;;;;;6.40;45.64;99251.66;6262429;27;97500;-63
2022/03/08 03:29:58;;;;;;;;;56.40;44.00;;;;;6.32;45.84;99259.81;6250186;27;97511;-64
2022/03/08 03:33:03;;;;;;;;;60.40;44.20;;;;;6.35;45.89;99259.41;6238762;27;96264;-63
2022/03/08 03:36:06;;;;;;;;;58.40;44.00;;;;;6.39;45.97;99263.41;6262641;27;96988;-62
2022/03/08 03:39:11;;;;;;;;;57.80;44.00;;;;;6.49;45.78;99265.81;6260995;27;97394;-63
2022/03/08 03:42:14;;;;;;;;;57.20;44.00;;;;;6.52;45.82;99260.06;6260489;27;96936;-63
2022/03/08 03:45:18;;;;;;;;;57.00;44.00;;;;;6.66;45.69;99269.94;6261249;27;97683;-62
2022/03/08 03:48:21;;;;;;;;;55.40;43.40;;;;;6.72;45.68;99276.38;6242810;27;96887;-63
2022/03/08 03:51:24;;;;;;;;;54.50;43.00;;;;;6.79;45.44;99280.00;6260557;27;97495;-63
2022/03/08 03:54:29;;;;;;;;;56.20;43.00;;;;;6.82;45.37;99279.59;6262138;27;98100;-63
2022/03/08 03:57:32;;;;;;;;;56.00;44.00;;;;;6.88;45.47;99281.53;6262540;27;98027;-63
2022/03/08 04:00:35;;;;;;;;;57.00;44.00;;;;;6.91;45.38;99278.47;6261924;27;97050;-65
2022/03/08 04:03:38;;;;;;;;;53.00;42.00;;;;;6.97;45.13;99275.88;6262068;27;96468;-62
2022/03/08 04:06:43;;;;;;;;;56.25;43.25;;;;;7.06;45.09;99276.59;6243613;27;97461;-62
2022/03/08 04:09:49;;;;;;;;;52.75;41.00;;;;;7.06;44.87;99276.59;6243368;27;97261;-63
2022/03/08 04:12:52;;;;;;;;;53.00;41.00;;;;;7.08;45.00;99289.81;6242629;27;97816;-63
2022/03/08 04:15:56;;;;;;;;;52.20;41.00;;;;;7.09;44.74;99286.09;6261351;27;96616;-64
2022/03/08 04:19:00;;;;;;;;;55.50;43.00;;;;;7.14;44.87;99289.03;6243174;27;98499;-62
2022/03/08 04:22:03;;;;;;;;;54.25;41.00;;;;;7.17;45.00;99294.03;6261553;27;97746;-62
2022/03/08 04:25:09;;;;;;;;;50.00;40.60;;;;;7.24;44.92;99303.78;6261585;27;96851;-63
2022/03/08 04:28:12;;;;;;;;;49.40;39.80;;;;;7.26;44.69;99299.09;6261088;27;96876;-62
2022/03/08 04:31:16;;;;;;;;;51.20;40.00;;;;;7.31;44.60;99298.50;6260184;27;97313;-63
2022/03/08 04:34:19;;;;;;;;;48.80;37.80;;;;;7.34;44.61;99306.16;6243503;27;96979;-62
2022/03/08 04:37:23;;;;;;;;;52.50;40.50;;;;;7.38;44.58;99304.75;6261133;27;96533;-63
2022/03/08 04:40:27;;;;;;;;;46.40;36.60;;;;;7.42;44.46;99314.09;6243292;27;97749;-63
2022/03/08 04:43:34;;;;;;;;;47.00;38.00;;;;;7.44;44.48;99317.41;6247390;27;96976;-63
2022/03/08 04:46:37;;;;;;;;;45.00;35.00;;;;;7.43;44.35;99313.06;6265409;27;97474;-63
2022/03/08 04:49:40;;;;;;;;;44.00;35.20;;;;;7.46;44.27;99314.53;6230016;27;99646;-62
2022/03/08 04:52:45;;;;;;;;;45.00;34.80;;;;;7.52;44.13;99316.47;6266047;27;97034;-62
2022/03/08 04:55:50;;;;;;;;;45.40;36.00;;;;;7.59;44.15;99328.91;6247547;27;97538;-62
2022/03/08 04:58:56;;;;;;;;;44.00;36.00;;;;;7.64;44.03;99322.97;6246934;27;97429;-63
2022/03/08 05:02:00;;;;;;;;;42.75;33.50;;;;;7.65;43.93;99320.09;6263758;27;97419;-63
2022/03/08 05:05:03;;;;;;;;;42.60;35.00;;;;;7.68;43.93;99321.56;6245395;27;98483;-61
2022/03/08 05:08:07;;;;;;;;;43.20;35.60;;;;;7.69;43.65;99325.91;6265237;27;96563;-63
2022/03/08 05:11:12;;;;;;;;;43.00;35.00;;;;;7.73;43.70;99321.81;6250807;27;97233;-62
2022/03/08 05:14:15;;;;;;;;;47.60;36.40;;;;;7.78;43.68;99330.94;6244436;27;97303;-62
2022/03/08 05:17:18;;;;;;;;;38.20;32.00;;;;;7.76;43.62;99326.81;6246170;27;96714;-62
2022/03/08 05:20:22;;;;;;;;;23.40;21.00;;;;;7.75;43.42;99333.19;6265284;27;96853;-64
2022/03/08 05:23:25;;;;;;;;;24.00;22.00;;;;;7.76;43.50;99340.22;6264207;27;97506;-63
2022/03/08 05:26:30;;;;;;;;;29.75;26.50;;;;;7.79;43.34;99339.84;6245036;27;96625;-63
2022/03/08 05:29:33;;;;;;;;;24.20;21.40;;;;;7.86;43.29;99335.38;6231970;27;97031;-63
2022/03/08 05:32:37;;;;;;;;;25.40;22.40;;;;;7.85;43.27;99341.75;6241981;27;97595;-63
2022/03/08 05:35:40;;;;;;;;;28.00;22.80;;;;;7.86;43.33;99340.72;6270331;27;96724;-63
2022/03/08 05:38:43;;;;;;;;;29.00;26.00;;;;;7.84;43.32;99343.59;6263603;27;97087;-64
2022/03/08 05:41:48;;;;;;;;;28.00;25.40;;;;;7.89;43.23;99353.75;6262451;27;96884;-63
2022/03/08 05:44:52;;;;;;;;;32.40;28.60;;;;;7.86;43.41;99347.97;6263770;27;97384;-63
2022/03/08 05:47:55;;;;;;;;;35.00;30.00;;;;;7.85;43.43;99349.81;6259734;27;99413;-62
2022/03/08 05:50:59;;;;;;;;;43.00;34.00;;;;;7.89;43.32;99355.63;6258106;27;97197;-64
2022/03/08 05:54:02;;;;;;;;;35.20;30.00;;;;;7.90;43.21;99362.66;6262623;27;96843;-62
2022/03/08 05:57:07;;;;;;;;;36.20;30.40;;;;;7.92;43.30;99363.28;6247747;27;99440;-63
2022/03/08 06:00:12;;;;;;;;;33.60;29.80;;;;;7.93;43.07;99356.88;6262302;27;97458;-63
2022/03/08 06:03:16;;;;;;;;;28.00;26.00;;;;;7.96;43.05;99361.88;6248308;27;99030;-62
2022/03/08 06:06:19;;;;;;;;;31.60;28.00;;;;;7.99;42.96;99361.47;6266876;27;96646;-62
2022/03/08 06:09:22;;;;;;;;;33.33;27.67;;;;;7.99;43.15;99362.31;6260833;27;97154;-64
2022/03/08 06:12:27;;;;;;;;;33.00;29.00;;;;;8.08;43.01;99363.00;6262856;27;97405;-64
2022/03/08 06:15:30;;;;;;;;;29.00;27.00;;;;;8.11;42.76;99362.63;6243258;27;96703;-62
2022/03/08 06:18:34;;;;;;;;;30.00;25.40;;;;;8.13;42.65;99361.41;6259581;27;97478;-63
2022/03/08 06:21:37;;;;;;;;;28.20;24.20;;;;;8.15;42.57;99362.06;6261979;27;96561;-62
2022/03/08 06:24:41;;;;;;;;;27.00;24.00;;;;;8.12;42.52;99361.59;6230440;27;97444;-63
2022/03/08 06:27:45;;;;;;;;;29.00;25.00;;;;;8.03;42.70;99365.44;6230380;27;98506;-63
2022/03/08 06:30:48;;;;;;;;;26.20;24.80;;;;;8.05;42.68;99360.72;6260589;27;98056;-62
2022/03/08 06:33:52;;;;;;;;;32.00;26.60;;;;;8.02;42.37;99363.78;6245535;27;98430;-62
2022/03/08 06:36:55;;;;;;;;;30.50;27.50;;;;;8.02;42.92;99363.78;6262113;27;96361;-62
2022/03/08 06:39:58;;;;;;;;;21.00;20.00;;;;;8.04;42.79;99364.41;6245698;27;97429;-64
2022/03/08 06:43:03;;;;;;;;;27.40;24.40;;;;;8.15;42.68;99361.22;6263750;27;96369;-62
2022/03/08 06:46:06;;;;;;;;;27.60;25.00;;;;;8.25;42.38;99369.78;6262377;27;96920;-62
2022/03/08 06:49:11;;;;;;;;;31.00;28.40;;;;;8.34;42.30;99371.31;6245381;27;96720;-63
2022/03/08 06:52:14;;;;;;;;;28.25;26.00;;;;;8.45;42.27;99378.84;6263427;27;97465;-62
2022/03/08 06:55:18;;;;;;;;;26.25;25.75;;;;;8.72;41.80;99369.06;6263539;27;96674;-64
2022/03/08 06:58:22;;;;;;;;;24.20;21.20;;;;;9.27;40.89;99373.47;6245097;27;96844;-64
2022/03/08 07:01:26;;;;;;;;;25.60;24.40;;;;;9.34;40.30;99378.88;6244873;27;98318;-64
2022/03/08 07:04:29;;;;;;;;;25.60;23.20;;;;;9.34;40.28;99373.47;6261391;27;96536;-62
2022/03/08 07:07:32;;;;;;;;;27.60;22.60;;;;;9.34;40.46;99368.09;6263201;27;97429;-62
2022/03/08 07:10:36;;;;;;;;;26.60;24.60;;;;;9.39;40.25;99373.72;6262476;27;97978;-63
2022/03/08 07:13:41;;;;;;;;;26.60;23.00;;;;;9.47;39.80;99374.38;6248292;27;98133;-64
2022/03/08 07:16:44;;;;;;;;;26.60;24.40;;;;;9.49;39.90;99368.78;6268456;27;97063;-63
2022/03/08 07:19:48;;;;;;;;;26.40;22.60;;;;;9.63;39.80;99358.91;6262307;27;96476;-66
2022/03/08 07:22:51;;;;;;;;;23.00;20.00;;;;;9.71;39.57;99361.38;6262841;27;97498;-63
2022/03/08 07:25:54;;;;;;;;;23.40;20.40;;;;;9.76;39.54;99364.28;6260704;27;97713;-62
2022/03/08 07:28:59;;;;;;;;;20.00;18.00;;;;;9.68;39.27;99361.78;6263074;27;97388;-64
2022/03/08 07:32:03;;;;;;;;;18.00;17.00;;;;;9.70;39.26;99359.72;6262673;27;97415;-64
2022/03/08 07:35:07;;;;;;;;;19.80;18.00;;;;;9.72;39.38;99361.19;6263111;27;96592;-62
2022/03/08 07:38:11;;;;;;;;;22.00;17.00;;;;;9.75;39.26;99366.16;6263319;27;97391;-63
2022/03/08 07:41:14;;;;;;;;;18.75;17.00;;;;;9.75;39.28;99370.72;6243975;27;97758;-62
2022/03/08 07:44:19;;;;;;;;;18.80;15.60;;;;;9.65;39.22;99372.97;6244341;27;99684;-62
2022/03/08 07:47:27;;;;;;;;;18.40;15.60;;;;;9.61;39.36;99377.94;6244445;27;98338;-61
2022/03/08 07:50:32;;;;;;;;;17.60;14.00;;;;;9.47;39.44;99379.75;6262793;27;97614;-62
2022/03/08 07:53:36;;;;;;;;;18.20;16.80;;;;;9.51;39.29;99377.50;6244240;27;99511;-61
2022/03/08 07:56:41;;;;;;;;;17.60;15.60;;;;;9.52;39.44;99381.84;6262739;27;96974;-61
2022/03/08 07:59:46;;;;;;;;;16.00;15.00;;;;;9.50;39.57;99382.03;6268922;27;97515;-61
2022/03/08 08:02:49;;;;;;;;;16.60;14.20;;;;;9.63;39.45;99386.63;6261911;27;97540;-62
2022/03/08 08:05:52;;;;;;;;;19.00;16.00;;;;;9.71;39.24;99380.22;6244204;27;97563;-62
2022/03/08 08:08:55;;;;;;;;;15.00;13.60;;;;;9.78;39.21;99386.44;6265965;27;96644;-62
2022/03/08 08:11:59;;;;;;;;;16.00;14.25;;;;;9.85;38.77;99390.81;6278592;27;97536;-64
2022/03/08 08:15:04;;;;;;;;;19.00;16.00;;;;;10.02;38.78;99392.06;6287434;27;97025;-63
2022/03/08 08:18:07;;;;;;;;;17.00;15.60;;;;;10.16;38.38;99384.88;6242360;27;97054;-62
2022/03/08 08:21:11;;;;;;;;;18.00;16.00;;;;;10.32;38.40;99384.44;6261859;27;96548;-63
2022/03/08 08:24:14;;;;;;;;;19.00;16.00;;;;;10.47;38.05;99391.47;6225640;27;97585;-62
2022/03/08 08:27:17;;;;;;;;;18.00;15.60;;;;;10.75;37.43;99379.41;6246391;27;97223;-62
2022/03/08 08:30:22;;;;;;;;;16.00;15.00;;;;;10.87;37.32;99385.00;6249019;27;96634;-61
2022/03/08 08:33:25;;;;;;;;;20.60;18.00;;;;;11.08;36.87;99392.84;6260525;27;97187;-63
2022/03/08 08:36:29;;;;;;;;;17.40;15.60;;;;;11.20;36.41;99399.22;6261850;27;97069;-62
2022/03/08 08:39:32;;;;;;;;;20.20;17.00;;;;;11.13;36.55;99394.88;6262144;27;96517;-63
2022/03/08 08:42:35;;;;;;;;;18.80;16.20;;;;;11.10;36.84;99398.81;6244060;27;97434;-63
2022/03/08 08:45:40;;;;;;;;;19.40;18.00;;;;;11.29;36.79;99405.19;6242285;27;98488;-72
2022/03/08 08:48:44;;;;;;;;;19.25;17.25;;;;;11.15;36.21;99372.03;6262542;27;96688;-63
2022/03/08 08:51:47;;;;;;;;;19.40;18.40;;;;;11.39;36.16;99408.25;6261632;27;97473;-63
2022/03/08 08:54:50;;;;;;;;;20.40;19.40;;;;;11.43;36.47;99411.38;6260901;27;96755;-64
2022/03/08 08:57:54;;;;;;;;;19.80;16.80;;;;;11.52;35.72;99410.94;6260487;27;98553;-61
2022/03/08 09:01:00;;;;;;;;;19.20;17.80;;;;;11.61;35.74;99411.50;6278996;27;97322;-62
2022/03/08 09:04:04;;;;;;;;;23.00;19.00;;;;;11.75;35.74;99412.28;6267564;27;96533;-62
2022/03/08 09:07:07;;;;;;;;;22.20;20.00;;;;;11.92;35.55;99406.19;6271798;27;97471;-63
2022/03/08 09:10:11;;;;;;;;;18.50;17.00;;;;;12.01;35.54;99404.84;6276498;27;96582;-62
2022/03/08 09:13:14;;;;;;;;;23.00;19.00;;;;;12.04;34.94;99404.41;6286057;27;97384;-63
2022/03/08 09:16:19;;;;;;;;;20.60;19.00;;;;;12.08;34.65;99393.97;6260813;27;97171;-63
2022/03/08 09:19:23;;;;;;;;;17.00;14.50;;;;;12.30;33.88;99414.22;6261169;27;96414;-64
2022/03/08 09:22:26;;;;;;;;;18.80;15.60;;;;;13.20;33.19;99410.03;6250975;27;98811;-62
2022/03/08 09:25:30;;;;;;;;;20.50;18.00;;;;;14.46;31.01;99412.69;6263700;27;97495;-63
2022/03/08 09:28:33;;;;;;;;;20.00;18.00;;;;;15.14;29.93;99402.06;6264342;27;97397;-63
2022/03/08 09:31:38;;;;;;;;;16.25;14.00;;;;;15.05;29.45;99414.31;6250212;27;97148;-62
2022/03/08 09:34:41;;;;;;;;;13.50;13.00;;;;;14.88;29.29;99410.69;6287946;27;97490;-63
2022/03/08 09:37:45;;;;;;;;;18.00;15.40;;;;;14.66;29.86;99412.34;6267026;27;98030;-62
2022/03/08 09:40:51;;;;;;;;;17.75;16.00;;;;;14.42;29.96;99419.63;6276679;27;96540;-63
2022/03/08 09:43:55;;;;;;;;;15.50;14.00;;;;;14.13;30.30;99412.31;6265926;27;97488;-63
2022/03/08 09:47:00;;;;;;;;;15.25;14.75;;;;;13.90;30.59;99415.78;6264867;27;97414;-62
2022/03/08 09:50:04;;;;;;;;;15.40;14.00;;;;;13.72;30.52;99422.09;6264833;27;97016;-63
2022/03/08 09:53:11;;;;;;;;;21.20;16.20;;;;;13.66;31.01;99414.06;6231204;27;97477;-63
2022/03/08 09:56:14;;;;;;;;;17.00;13.40;;;;;13.68;30.80;99418.16;6264642;27;96942;-61
2022/03/08 09:59:19;;;;;;;;;16.60;14.00;;;;;13.72;30.21;99416.69;6229410;27;98359;-63
2022/03/08 10:02:24;;;;;;;;;15.00;13.00;;;;;13.93;30.07;99420.75;6245582;27;96866;-63
2022/03/08 10:05:37;;;;;;;;;13.00;11.60;;;;;14.41;30.34;99417.16;6264197;27;97414;-62
2022/03/08 10:08:40;;;;;;;;;16.80;14.80;;;;;14.61;29.30;99421.16;6263807;27;96663;-63
2022/03/08 10:11:44;;;;;;;;;13.75;12.75;;;;;14.74;28.60;99415.53;6263971;27;96410;-63
2022/03/08 10:15:16;;;;;;;;;16.00;13.50;;;;;14.85;28.71;99418.50;6261835;27;97461;-63
2022/03/08 10:18:33;;;;;;;;;15.80;13.00;;;;;14.84;28.68;99420.38;6263062;27;96807;-64
2022/03/08 10:21:40;;;;;;;;;13.75;13.00;;;;;14.79;28.57;99425.69;6274289;27;98045;-63
2022/03/08 10:24:43;;;;;;;;;11.00;11.00;;;;;14.88;28.44;99426.97;6286765;27;97470;-62
2022/03/08 10:28:00;;;;;;;;;14.00;11.00;;;;;14.76;28.03;99428.84;6263011;27;97501;-65
2022/03/08 10:31:13;;;;;;;;;14.40;12.00;;;;;14.93;28.47;99428.97;6263178;27;96353;-64
2022/03/08 10:34:17;;;;;;;;;14.00;12.00;;;;;16.00;27.68;99420.13;6238811;28;97088;-64
2022/03/08 10:37:24;;;;;;;;;10.00;9.25;;;;;16.35;26.35;99410.94;6222428;27;96652;-63
2022/03/08 10:40:32;;;;;;;;;12.40;12.00;;;;;16.92;25.50;99408.03;6264133;27;98132;-65
2022/03/08 10:43:49;;;;;;;;;14.50;12.50;;;;;18.28;24.17;99406.97;6263789;27;97428;-65
2022/03/08 10:47:04;;;;;;;;;11.25;11.00;;;;;18.60;22.79;99410.59;6264155;27;96712;-64
2022/03/08 10:50:11;;;;;;;;;10.00;9.00;;;;;18.54;22.63;99408.06;6233367;27;96539;-64
2022/03/08 10:53:16;;;;;;;;;9.00;9.00;;;;;18.39;22.89;99397.81;6250865;27;97436;-63
2022/03/08 10:56:24;;;;;;;;;8.00;7.00;;;;;18.05;22.16;99394.50;6260521;27;97272;-64
2022/03/08 10:59:27;;;;;;;;;8.50;7.00;;;;;17.55;22.51;99382.97;6269658;27;96965;-63
2022/03/08 11:02:30;;;;;;;;;7.40;7.00;;;;;17.24;22.79;99379.91;6264490;27;96781;-62
2022/03/08 11:05:37;;;;;;;;;6.00;5.80;;;;;17.00;22.75;99383.94;6245825;27;96539;-63
2022/03/08 11:08:41;;;;;;;;;11.00;10.00;;;;;16.78;23.96;99380.34;6264232;27;96532;-62
2022/03/08 11:11:44;;;;;;;;;10.00;8.00;;;;;16.45;24.69;99382.00;6263203;27;97617;-62
2022/03/08 11:14:47;;;;;;;;;10.00;8.60;;;;;16.21;24.81;99380.50;6258566;27;96521;-63
2022/03/08 11:17:53;;;;;;;;;9.00;8.00;;;;;15.96;25.18;99377.34;6278381;27;96906;-64
2022/03/08 11:20:59;;;;;;;;;10.40;7.00;;;;;15.62;24.81;99367.44;6260499;27;97516;-62
2022/03/08 11:24:04;;;;;;;;;11.00;10.00;;;;;15.52;24.90;99363.47;6243450;27;97057;-63
2022/03/08 11:27:08;;;;;;;;;7.60;7.00;;;;;16.36;24.61;99364.44;6259528;27;97555;-63
2022/03/08 11:30:14;;;;;;;;;7.80;6.80;;;;;17.05;24.86;99355.94;6262127;27;97522;-62
2022/03/08 11:33:25;;;;;;;;;5.60;5.00;;;;;18.27;21.76;99356.22;6262799;27;96548;-64
2022/03/08 11:36:34;;;;;;;;;5.60;5.60;;;;;19.01;21.13;99357.00;6251408;27;97421;-64
2022/03/08 11:39:39;;;;;;;;;6.60;6.60;;;;;18.74;21.37;99350.84;6252918;27;97462;-62
2022/03/08 11:42:46;;;;;;;;;7.20;6.80;;;;;18.26;21.33;99351.84;6270852;27;97321;-62
2022/03/08 11:45:50;;;;;;;;;6.00;6.00;;;;;18.51;21.34;99349.31;6263813;27;97525;-63
2022/03/08 11:48:56;;;;;;;;;7.00;6.00;;;;;17.86;21.59;99338.66;6269818;27;97435;-63
2022/03/08 11:52:13;;;;;;;;;8.00;7.00;;;;;17.38;21.93;99342.19;6268322;27;97108;-62
2022/03/08 11:55:17;;;;;;;;;6.00;5.80;;;;;17.83;21.73;99336.44;6261077;27;96466;-61
2022/03/08 11:58:21;;;;;;;;;7.60;7.00;;;;;18.74;21.20;99339.94;6253598;27;99612;-62
2022/03/08 12:01:28;;;;;;;;;8.00;7.00;;;;;18.62;21.21;99333.84;6259008;27;97398;-63
2022/03/08 12:04:45;;;;;;;;;8.00;8.00;;;;;18.17;21.32;99335.13;6261851;27;97448;-63
2022/03/08 12:07:50;;;;;;;;;8.00;6.00;;;;;17.66;22.24;99324.81;6262232;27;96597;-63
2022/03/08 12:11:00;;;;;;;;;10.00;8.00;;;;;17.16;22.25;99322.28;6260911;27;96902;-62
2022/03/08 12:14:27;;;;;;;;;6.20;5.80;;;;;17.51;22.32;99314.53;6255620;27;98432;-63
2022/03/08 12:17:32;;;;;;;;;7.00;7.00;;;;;18.20;21.52;99309.22;6256234;27;97478;-62
2022/03/08 12:20:35;;;;;;;;;8.00;7.00;;;;;19.15;20.81;99299.16;6239291;27;97639;-63
2022/03/08 12:23:49;;;;;;;;;8.00;8.00;;;;;19.22;20.84;99302.44;6258404;27;97520;-63
2022/03/08 12:26:56;;;;;;;;;7.00;6.25;;;;;19.44;20.00;99297.66;6230368;27;96741;-65
2022/03/08 12:30:38;;;;;;;;;6.00;6.00;;;;;20.06;19.75;99307.59;6259917;27;97444;-64
2022/03/08 12:34:02;;;;;;;;;8.00;6.60;;;;;20.61;18.76;99298.53;6260440;27;97562;-64
2022/03/08 12:37:27;;;;;;;;;7.00;6.40;;;;;20.75;18.33;99299.59;6262125;27;97626;-63
2022/03/08 12:40:38;;;;;;;;;8.00;7.00;;;;;20.88;18.39;99298.19;6245035;27;97209;-63
2022/03/08 12:43:43;;;;;;;;;9.00;7.00;;;;;20.73;18.73;99280.69;6260274;27;96719;-64
2022/03/08 12:46:47;;;;;;;;;6.40;6.00;;;;;21.09;18.50;99294.28;6243702;27;97151;-64
2022/03/08 12:49:51;;;;;;;;;6.60;6.00;;;;;20.81;18.10;99292.19;6244710;27;96423;-64
2022/03/08 12:52:57;;;;;;;;;6.00;5.50;;;;;20.58;18.22;99290.88;6260384;27;96572;-63
2022/03/08 12:56:11;;;;;;;;;8.00;7.00;;;;;20.52;18.50;99287.34;6225276;27;99440;-63
2022/03/08 12:59:14;;;;;;;;;7.00;7.00;;;;;20.62;18.61;99273.59;6260857;27;96845;-63
2022/03/08 13:02:19;;;;;;;;;7.00;6.00;;;;;20.48;18.61;99278.00;6261885;27;97494;-64
2022/03/08 13:05:28;;;;;;;;;6.00;5.75;;;;;20.57;17.81;99270.91;6272972;27;97274;-62
2022/03/08 13:08:35;;;;;;;;;8.00;7.00;;;;;20.58;18.44;99274.44;6246841;27;97378;-63
2022/03/08 13:11:41;;;;;;;;;7.00;6.00;;;;;20.45;18.38;99264.06;6258936;27;97486;-64
2022/03/08 13:14:45;;;;;;;;;8.33;8.33;;;;;20.64;18.54;99270.59;6230433;27;97086;-63
2022/03/08 13:17:50;;;;;;;;;8.00;7.00;;;;;20.65;18.30;99275.78;6247342;27;97469;-63
2022/03/08 13:20:56;;;;;;;;;6.60;6.20;;;;;20.74;18.62;99270.56;6264646;27;97508;-63
2022/03/08 13:24:00;;;;;;;;;7.00;7.00;;;;;20.69;18.23;99282.34;6249221;27;97702;-64
2022/03/08 13:27:05;;;;;;;;;8.50;7.50;;;;;20.18;18.48;99276.09;6262404;27;97042;-64
2022/03/08 13:30:27;;;;;;;;;9.00;8.00;;;;;19.77;18.66;99282.66;6260339;27;97947;-64
2022/03/08 13:33:34;;;;;;;;;7.00;7.00;;;;;19.26;19.33;99273.47;6263114;27;97254;-63
2022/03/08 13:36:37;;;;;;;;;8.00;6.00;;;;;18.89;19.37;99279.91;6245370;27;97457;-63
2022/03/08 13:39:46;;;;;;;;;6.00;6.00;;;;;18.56;19.76;99285.75;6223792;27;98611;-64
2022/03/08 13:42:50;;;;;;;;;8.00;7.00;;;;;18.29;20.57;99271.31;6256129;27;98397;-63
2022/03/08 13:46:17;;;;;;;;;8.00;8.00;;;;;18.14;20.94;99272.88;6263438;27;97290;-62
2022/03/08 13:49:23;;;;;;;;;6.25;6.00;;;;;18.03;21.38;99267.59;6263265;27;96570;-64
2022/03/08 13:52:26;;;;;;;;;6.75;6.25;;;;;17.86;21.37;99266.91;6252705;27;98576;-63
2022/03/08 13:55:33;;;;;;;;;7.80;7.40;;;;;17.51;21.61;99276.38;6257802;27;99813;-62
2022/03/08 13:58:41;;;;;;;;;10.00;9.00;;;;;17.20;21.98;99266.22;6261920;27;96853;-63
2022/03/08 14:01:58;;;;;;;;;11.00;10.60;;;;;16.68;22.70;99277.56;6265063;27;97832;-63
2022/03/08 14:05:07;;;;;;;;;12.00;11.60;;;;;16.24;23.39;99271.19;6252900;27;96711;-63
2022/03/08 14:08:11;;;;;;;;;13.20;11.60;;;;;15.88;23.90;99277.13;6267997;27;97357;-64
2022/03/08 14:11:16;;;;;;;;;16.80;14.00;;;;;15.44;24.57;99276.06;6263442;27;98083;-63
2022/03/08 14:14:24;;;;;;;;;16.00;13.60;;;;;15.13;25.05;99267.31;6268040;27;98044;-63
2022/03/08 14:17:31;;;;;;;;;18.00;16.00;;;;;15.01;25.35;99271.94;6286344;27;97863;-62
2022/03/08 14:20:41;;;;;;;;;17.00;15.00;;;;;14.87;25.79;99269.75;6252164;27;97279;-62